Strona główna
METAR-TAF:

METAR-TAF

Lotnisko :

Port lotniczy Damaszek

Damaszek, Syria

Szerokość geograficzna: 33-25N, Długość geograficzna: 036-31E, wysokość: 608 m

Aktualna obserwacja pogody

Raport powstał 1 godzina i 59 minut temu, godzina 15:00 UTC
Wiatr 2 kt od południowy wschód
Temperatura 33°C
Wilgotność 17%
Ciśnienie 1015 hPa
Widzialność 10 km lub więcej
Brak chmur poniżej 1500 m i brak chmur cumulonimbus

METAR: OSDI 231500Z 14002KT CAVOK 33/05 Q1015

czas: 19:59 (16:59 UTC)

Prognoza

Raport powstał 6 godziny i 59 minut temu, godzina 10:00 UTC
Prognoza ważna od 23 godzina 12 UTC do 24 godzina 18 UTC
Wiatr 10 kt od południowy zachód
Widzialność 10 km lub więcej
Brak chmur poniżej 1500 m i brak chmur cumulonimbus
Przejściowo
od 23 godzina 12 UTC do 23 godzina 18 UTC
Wiatr 15 kt od zachodnio-południowy zachód w porywach dochodzący do 25 kt
Widzialność 10 km lub więcej
Mało chmury na wysokości 3000 ft

TAF: OSDI 231000Z 2312/2418 22010KT CAVOK TEMPO 2312/2318 25015G25KT 9999 FEW030

Obserwacja i prognoza pogody dla ponad 4000 lotnisk (raport METAR i TAF).

Dostępne stacje oznaczono żółtymi i czerwonymi punktami na mapie.

Najedź kursorem aby zobaczyć nazwę stacji.

Kliknij aby zobaczyć obserwacje i prognozy pogody.

Aby zmienić mapę: kliknij na zielony przycisk z czarnym krzyżykiem, aby powiększyć; na zielony przycisk z myślnikiem, aby pomniejszyć; na zielone strzałki, aby przejść do map sąsiednich.


METAR-TAF: